Time;durP1;ratioP1;P1;durP2;ratioP2;P2;SDS_P1;SDS_P2;PMS_P1;PMS_P2;Temp;Humidity;BMP_temperature;BMP_pressure;BME280_temperature;BME280_humidity;BME280_pressure;Samples;Min_cycle;Max_cycle;Signal;HPM_P1;HPM_P2
2022/10/11 00:01:46;;;;;;;5.97;1.40;;;;;;;8.90;100.00;101530.00;4985560;28;20051;-89
2022/10/11 00:04:12;;;;;;;8.15;1.80;;;;;;;8.60;100.00;101495.69;4975573;28;20050;-89
2022/10/11 00:06:42;;;;;;;7.85;1.85;;;;;;;8.91;100.00;101526.50;4985912;28;20047;-89
2022/10/11 00:09:10;;;;;;;6.10;1.40;;;;;;;8.91;100.00;101514.28;4976980;28;20050;-89
2022/10/11 00:11:37;;;;;;;9.05;1.60;;;;;;;8.60;100.00;101461.75;4989772;28;20131;-88
2022/10/11 00:14:05;;;;;;;5.50;1.30;;;;;;;8.83;100.00;101484.84;4974673;28;20055;-89
2022/10/11 00:16:31;;;;;;;7.03;1.63;;;;;;;8.73;100.00;101489.38;4975999;28;20050;-88
2022/10/11 00:18:58;;;;;;;7.95;2.67;;;;;;;8.62;100.00;101457.34;4987293;28;20050;-88
2022/10/11 00:21:25;;;;;;;6.35;1.88;;;;;;;9.00;100.00;101504.56;4980771;28;20053;-88
2022/10/11 00:23:52;;;;;;;11.05;2.20;;;;;;;8.91;100.00;101497.78;4973568;28;20054;-88
2022/10/11 00:26:19;;;;;;;8.75;2.00;;;;;;;8.95;100.00;101482.91;4973056;28;20437;-88
2022/10/11 00:28:45;;;;;;;9.38;1.92;;;;;;;8.97;100.00;101483.72;4992201;28;20505;-88
2022/10/11 00:31:15;;;;;;;9.23;2.00;;;;;;;9.23;100.00;101509.38;4973482;28;20055;-88
2022/10/11 00:33:41;;;;;;;6.47;1.63;;;;;;;9.45;100.00;101526.31;4989281;28;20579;-88
2022/10/11 00:36:12;;;;;;;7.55;1.67;;;;;;;9.28;100.00;101504.91;4974073;28;20110;-88
2022/10/11 00:38:39;;;;;;;7.25;1.80;;;;;;;9.24;100.00;101517.19;4976337;28;20097;-88
2022/10/11 00:41:06;;;;;;;10.80;1.88;;;;;;;9.29;100.00;101517.91;4976615;28;20054;-88
2022/10/11 00:43:32;;;;;;;7.60;1.75;;;;;;;9.32;100.00;101533.53;4989137;28;20101;-88
2022/10/11 00:46:17;;;;;;;8.80;1.77;;;;;;;9.11;100.00;101547.03;4973401;28;20132;-88
2022/10/11 00:49:03;;;;;;;4.78;1.38;;;;;;;9.01;100.00;101525.44;4975641;28;20038;-88
2022/10/11 00:51:50;;;;;;;5.38;1.30;;;;;;;9.08;100.00;101545.34;4979442;28;20054;-88
2022/10/11 00:54:22;;;;;;;8.60;1.70;;;;;;;9.07;100.00;101535.78;4961526;28;20461;-88
2022/10/11 00:56:55;;;;;;;8.17;1.80;;;;;;;9.18;100.00;101537.34;4988626;28;20051;-88
2022/10/11 00:59:26;;;;;;;7.22;1.60;;;;;;;9.21;100.00;101545.97;4990474;28;20334;-88
2022/10/11 01:01:54;;;;;;;9.20;1.80;;;;;;;9.26;100.00;101549.34;4981599;28;20046;-87
2022/10/11 01:04:21;;;;;;;6.43;1.45;;;;;;;9.37;100.00;101561.38;4986232;28;20046;-87
2022/10/11 01:06:49;;;;;;;8.85;1.70;;;;;;;9.20;100.00;101535.53;4967219;28;20050;-87
2022/10/11 01:09:18;;;;;;;7.22;1.52;;;;;;;9.19;100.00;101534.69;4973360;28;20739;-88
2022/10/11 01:11:48;;;;;;;7.05;1.70;;;;;;;9.30;100.00;101539.72;4982457;28;20449;-88
2022/10/11 01:14:33;;;;;;;7.40;2.10;;;;;;;9.43;100.00;101563.84;4972603;28;20046;-88
2022/10/11 01:17:33;;;;;;;11.98;1.77;;;;;;;9.55;100.00;101561.00;4980662;28;20053;-88
2022/10/11 01:20:29;;;;;;;3.10;1.30;;;;;;;9.71;100.00;101547.59;4977397;28;20046;-88
2022/10/11 01:23:41;;;;;;;6.70;1.65;;;;;;;9.58;100.00;101534.78;4969783;28;20046;-88
2022/10/11 01:26:46;;;;;;;9.43;1.73;;;;;;;9.59;100.00;101539.09;4971884;28;20102;-88
2022/10/11 01:29:34;;;;;;;9.50;1.58;;;;;;;9.65;100.00;101539.00;4974689;28;20050;-88
2022/10/11 01:32:14;;;;;;;7.75;1.98;;;;;;;9.44;100.00;101505.47;4983961;28;20484;-88
2022/10/11 01:34:49;;;;;;;8.85;1.42;;;;;;;9.54;100.00;101512.19;4990317;28;20062;-87
2022/10/11 01:37:27;;;;;;;10.68;1.80;;;;;;;9.50;100.00;101527.09;4990128;28;20125;-87
2022/10/11 01:40:01;;;;;;;6.53;1.45;;;;;;;9.75;100.00;101562.34;4989241;28;20051;-88
2022/10/11 01:42:29;;;;;;;7.15;1.75;;;;;;;9.65;100.00;101539.00;4974489;28;20057;-88
2022/10/11 01:44:57;;;;;;;6.57;2.10;;;;;;;9.77;100.00;101550.94;4973396;28;20050;-89
2022/10/11 01:47:25;;;;;;;5.53;1.50;;;;;;;9.75;100.00;101557.09;4974298;28;20046;-88
2022/10/11 01:49:53;;;;;;;9.55;1.58;;;;;;;9.67;100.00;101528.50;4988596;28;20050;-88
2022/10/11 01:52:20;;;;;;;7.30;1.38;;;;;;;9.93;100.00;101561.94;4969024;28;20102;-88
2022/10/11 01:54:55;;;;;;;9.35;2.47;;;;;;;9.46;100.00;101493.22;4989832;28;20508;-88
2022/10/11 01:58:01;;;;;;;9.63;1.83;;;;;;;9.63;100.00;101519.88;4990195;28;20054;-87
2022/10/11 02:00:45;;;;;;;7.80;1.92;;;;;;;9.60;100.00;101517.31;4992224;28;20108;-88
2022/10/11 02:03:33;;;;;;;4.90;1.60;;;;;;;9.70;100.00;101502.28;4978211;28;20493;-88
2022/10/11 02:06:16;;;;;;;5.70;1.30;;;;;;;9.64;100.00;101516.34;4992219;28;20042;-87
2022/10/11 02:08:58;;;;;;;7.55;1.60;;;;;;;9.76;100.00;101527.44;4977630;28;20054;-88
2022/10/11 02:11:32;;;;;;;7.90;1.30;;;;;;;9.69;100.00;101519.72;4979744;28;20631;-88
2022/10/11 02:14:08;;;;;;;7.60;1.55;;;;;;;9.90;100.00;101541.09;4978552;28;20533;-87
2022/10/11 02:16:57;;;;;;;5.50;1.30;;;;;;;9.79;100.00;101535.22;4996254;28;20541;-87
2022/10/11 02:19:28;;;;;;;5.75;1.27;;;;;;;9.86;100.00;101542.03;4993322;28;20460;-88
2022/10/11 02:22:03;;;;;;;6.97;1.52;;;;;;;9.76;100.00;101528.31;4995450;28;20054;-88
2022/10/11 02:24:32;;;;;;;5.63;1.33;;;;;;;9.72;100.00;101533.63;4978423;28;20050;-87
2022/10/11 02:27:02;;;;;;;7.10;1.38;;;;;;;9.70;100.00;101533.66;4977970;28;20106;-88
2022/10/11 02:29:33;;;;;;;5.80;1.30;;;;;;;9.81;100.00;101531.69;4993786;28;20050;-87
2022/10/11 02:32:00;;;;;;;5.93;1.27;;;;;;;9.88;100.00;101532.41;4990127;28;20065;-88
2022/10/11 02:34:36;;;;;;;8.50;1.58;;;;;;;9.76;100.00;101523.06;4976696;28;20054;-88
2022/10/11 02:37:15;;;;;;;5.43;1.50;;;;;;;9.93;100.00;101521.84;4992454;28;20416;-88
2022/10/11 02:39:57;;;;;;;9.88;1.83;;;;;;;9.79;100.00;101517.78;4994997;28;20120;-88
2022/10/11 02:42:31;;;;;;;4.15;1.73;;;;;;;9.98;100.00;101531.28;4991416;28;20046;-87
2022/10/11 02:45:39;;;;;;;4.53;1.35;;;;;;;9.99;100.00;101527.78;4994081;28;20108;-86
2022/10/11 02:48:09;;;;;;;4.03;1.23;;;;;;;9.88;100.00;101514.97;4914073;29;20410;-87
2022/10/11 02:50:42;;;;;;;3.88;1.10;;;;;;;10.00;100.00;101526.88;4921800;29;20055;-88
2022/10/11 02:53:13;;;;;;;4.90;1.45;;;;;;;9.88;100.00;101521.97;4946700;28;20058;-87
2022/10/11 02:55:39;;;;;;;6.90;1.30;;;;;;;9.86;100.00;101500.19;4988020;28;20588;-88
2022/10/11 02:58:06;;;;;;;7.43;1.42;;;;;;;9.87;100.00;101497.53;4971882;28;20097;-88
2022/10/11 03:00:33;;;;;;;5.90;1.58;;;;;;;9.96;100.00;101524.38;4976761;28;20058;-88
2022/10/11 03:02:59;;;;;;;5.05;1.30;;;;;;;9.77;100.00;101477.69;4977678;28;20161;-88
2022/10/11 03:05:26;;;;;;;7.32;1.23;;;;;;;9.79;100.00;101478.56;4993443;28;20401;-88
2022/10/11 03:07:53;;;;;;;5.45;1.30;;;;;;;9.82;100.00;101478.47;4993031;28;20460;-88
2022/10/11 03:10:20;;;;;;;5.90;1.35;;;;;;;10.05;100.00;101511.94;4976886;28;20058;-88
2022/10/11 03:12:47;;;;;;;7.70;1.73;;;;;;;9.91;100.00;101485.25;4984951;28;20436;-88
2022/10/11 03:15:14;;;;;;;5.40;1.38;;;;;;;9.79;100.00;101475.06;4993068;28;20050;-88
2022/10/11 03:17:40;;;;;;;2.97;1.02;;;;;;;9.86;100.00;101487.97;4976318;28;20054;-88
2022/10/11 03:20:08;;;;;;;6.40;1.50;;;;;;;9.92;100.00;101504.44;4977012;28;20046;-88
2022/10/11 03:22:35;;;;;;;2.97;1.13;;;;;;;9.95;100.00;101510.47;4993210;28;20046;-88
2022/10/11 03:25:01;;;;;;;7.22;1.38;;;;;;;9.92;100.00;101502.66;4994056;28;20105;-88
2022/10/11 03:27:31;;;;;;;5.68;1.60;;;;;;;9.86;100.00;101494.94;4977012;28;20132;-88
2022/10/11 03:29:59;;;;;;;5.63;1.35;;;;;;;9.87;100.00;101507.13;4973849;28;20551;-88
2022/10/11 03:32:26;;;;;;;7.10;1.50;;;;;;;9.98;100.00;101507.75;4990326;28;20596;-87
2022/10/11 03:34:54;;;;;;;9.50;1.52;;;;;;;10.02;100.00;101519.00;4993040;28;20073;-88
2022/10/11 03:37:24;;;;;;;7.68;1.55;;;;;;;9.94;100.00;101506.09;4994312;28;20061;-88
2022/10/11 03:39:53;;;;;;;7.18;1.40;;;;;;;10.16;100.00;101535.25;4976293;28;20053;-87
2022/10/11 03:42:20;;;;;;;4.63;1.52;;;;;;;9.80;100.00;101492.47;4974170;28;20058;-88
2022/10/11 03:44:49;;;;;;;10.32;2.33;;;;;;;10.04;100.00;101519.84;4976976;28;20116;-88
2022/10/11 03:47:15;;;;;;;6.22;1.40;;;;;;;9.91;100.00;101516.63;4994416;28;20046;-88
2022/10/11 03:49:42;;;;;;;3.72;1.17;;;;;;;9.88;100.00;101503.66;4977275;28;20113;-89
2022/10/11 03:52:10;;;;;;;5.70;1.20;;;;;;;9.91;100.00;101503.56;4993210;28;20050;-88
2022/10/11 03:54:37;;;;;;;6.95;1.30;;;;;;;9.99;100.00;101519.94;4996885;28;20552;-88
2022/10/11 03:57:03;;;;;;;7.35;1.70;;;;;;;9.97;100.00;101513.91;4989471;28;20047;-89
2022/10/11 03:59:30;;;;;;;4.97;1.20;;;;;;;9.99;100.00;101527.78;4990080;28;20101;-88
2022/10/11 04:01:57;;;;;;;5.43;1.20;;;;;;;10.02;100.00;101524.22;4976401;28;20132;-88
2022/10/11 04:04:24;;;;;;;7.93;1.35;;;;;;;9.88;100.00;101506.25;4977571;28;20054;-88
2022/10/11 04:06:50;;;;;;;2.55;1.00;;;;;;;10.01;100.00;101517.31;4986802;28;20043;-88
2022/10/11 04:09:17;;;;;;;6.80;1.55;;;;;;;9.95;100.00;101504.34;4989266;28;20046;-88
2022/10/11 04:11:44;;;;;;;5.55;1.30;;;;;;;9.92;100.00;101530.59;4976063;28;20046;-88
2022/10/11 04:14:10;;;;;;;6.32;1.40;;;;;;;9.88;100.00;101519.34;4994390;28;20050;-88
2022/10/11 04:16:40;;;;;;;3.58;1.00;;;;;;;9.81;100.00;101486.34;4992774;28;20745;-88
2022/10/11 04:19:06;;;;;;;5.22;1.10;;;;;;;9.89;100.00;101532.34;4992595;28;20475;-89
2022/10/11 04:21:33;;;;;;;5.88;1.38;;;;;;;10.18;100.00;101548.31;4994904;28;20046;-88
2022/10/11 04:24:00;;;;;;;5.82;1.35;;;;;;;10.07;100.00;101544.19;4991823;28;20062;-88
2022/10/11 04:26:27;;;;;;;7.50;1.42;;;;;;;9.90;100.00;101504.47;4987429;28;20114;-88
2022/10/11 04:28:53;;;;;;;7.32;2.60;;;;;;;10.05;100.00;101537.25;4994352;28;20520;-88
2022/10/11 04:31:20;;;;;;;7.20;1.30;;;;;;;10.17;100.00;101560.53;4974030;28;20058;-89
2022/10/11 04:33:47;;;;;;;6.82;1.67;;;;;;;9.89;100.00;101531.50;4969468;28;20051;-88
2022/10/11 04:36:14;;;;;;;4.75;1.17;;;;;;;9.79;100.00;101490.75;4963853;28;20062;-88
2022/10/11 04:38:41;;;;;;;5.80;1.40;;;;;;;9.81;100.00;101495.06;4973660;28;20378;-89
2022/10/11 04:41:09;;;;;;;6.05;1.60;;;;;;;10.19;100.00;101550.88;4956924;28;20489;-89
2022/10/11 04:43:36;;;;;;;5.93;1.20;;;;;;;10.21;100.00;101556.94;4957407;28;20054;-89
2022/10/11 04:46:03;;;;;;;6.28;1.40;;;;;;;10.15;100.00;101544.00;4973560;28;20051;-89
2022/10/11 04:48:30;;;;;;;4.57;1.33;;;;;;;10.14;100.00;101539.66;4957086;28;20429;-88
2022/10/11 04:50:57;;;;;;;5.30;1.30;;;;;;;10.29;100.00;101541.06;4969497;28;20098;-89
2022/10/11 04:53:24;;;;;;;4.32;1.25;;;;;;;10.07;100.00;101525.88;4955275;29;20055;-89
2022/10/11 04:56:03;;;;;;;7.25;1.33;;;;;;;10.10;100.00;101545.88;4961746;28;20050;-89
2022/10/11 04:58:31;;;;;;;7.18;1.80;;;;;;;10.05;100.00;101526.78;4974236;28;20503;-89
2022/10/11 05:00:58;;;;;;;8.30;1.45;;;;;;;10.11;100.00;101537.13;4957091;28;20050;-89
2022/10/11 05:03:26;;;;;;;4.00;1.17;;;;;;;10.23;100.00;101560.41;4973008;28;20051;-89
2022/10/11 05:05:53;;;;;;;5.30;1.05;;;;;;;9.81;100.00;101495.06;4953657;28;20055;-88
2022/10/11 05:08:21;;;;;;;4.43;1.38;;;;;;;9.88;100.00;101501.03;4951987;28;20054;-89
2022/10/11 05:11:00;;;;;;;6.80;2.13;;;;;;;10.22;100.00;101556.06;4952471;28;20047;-89
2022/10/11 05:13:28;;;;;;;5.85;1.35;;;;;;;10.27;100.00;101562.06;4957004;28;20050;-88
2022/10/11 05:15:55;;;;;;;3.30;1.00;;;;;;;9.87;100.00;101512.38;4969239;28;20066;-89
2022/10/11 05:18:22;;;;;;;5.22;1.20;;;;;;;10.23;100.00;101556.91;4964772;28;20481;-88
2022/10/11 05:21:05;;;;;;;4.18;1.20;;;;;;;9.87;100.00;101513.22;4959239;28;20047;-88
2022/10/11 05:23:33;;;;;;;5.47;1.23;;;;;;;9.79;100.00;101503.81;4969867;28;20456;-89
2022/10/11 05:26:00;;;;;;;6.78;1.42;;;;;;;9.99;100.00;101535.66;4974605;28;20055;-89
2022/10/11 05:28:28;;;;;;;3.53;1.30;;;;;;;10.10;100.00;101531.94;4983952;28;20515;-87
2022/10/11 05:30:55;;;;;;;3.95;1.02;;;;;;;9.99;100.00;101535.66;4980545;28;20470;-89
2022/10/11 05:33:22;;;;;;;4.03;1.25;;;;;;;10.13;100.00;101564.13;4963812;28;20112;-88
2022/10/11 05:35:48;;;;;;;3.58;1.10;;;;;;;9.96;100.00;101513.94;4979194;28;20506;-88
2022/10/11 05:38:16;;;;;;;4.15;1.30;;;;;;;10.08;100.00;101550.28;4986035;28;20062;-89
2022/10/11 05:40:43;;;;;;;4.32;1.10;;;;;;;9.98;100.00;101549.59;4994589;28;20077;-87
2022/10/11 05:43:11;;;;;;;5.10;1.23;;;;;;;9.58;100.00;101472.03;4974750;28;20101;-87
2022/10/11 05:45:39;;;;;;;4.38;1.20;;;;;;;9.60;100.00;101475.47;4993985;28;20049;-87
2022/10/11 05:48:07;;;;;;;2.92;1.23;;;;;;;10.07;100.00;101545.94;4977637;28;20053;-86
2022/10/11 05:50:35;;;;;;;5.47;1.00;;;;;;;10.14;100.00;101551.88;4976068;28;20050;-87
2022/10/11 05:53:06;;;;;;;2.85;0.98;;;;;;;9.37;100.00;101433.31;4971271;28;20058;-87
2022/10/11 05:55:41;;;;;;;2.13;0.90;;;;;;;10.31;100.00;101581.19;4971950;28;20130;-87
2022/10/11 05:58:12;;;;;;;4.10;1.00;;;;;;;9.80;100.00;101505.56;4972834;28;20054;-88
2022/10/11 06:00:39;;;;;;;3.05;1.00;;;;;;;10.27;100.00;101563.81;4989230;28;20393;-87
2022/10/11 06:03:07;;;;;;;2.55;1.00;;;;;;;10.39;100.00;101576.66;4992432;28;20480;-87
2022/10/11 06:05:34;;;;;;;2.92;1.20;;;;;;;10.17;100.00;101538.75;4985373;28;20065;-87
2022/10/11 06:08:02;;;;;;;3.67;1.00;;;;;;;10.33;100.00;101562.84;4993786;28;20058;-88
2022/10/11 06:10:29;;;;;;;2.90;0.90;;;;;;;10.03;100.00;101518.13;4971618;28;20162;-87
2022/10/11 06:12:56;;;;;;;2.28;0.90;;;;;;;10.15;100.00;101543.16;4964698;28;20126;-86
2022/10/11 06:15:26;;;;;;;2.45;1.10;;;;;;;10.05;100.00;101539.88;4991774;28;20050;-87
2022/10/11 06:17:53;;;;;;;2.10;0.95;;;;;;;10.14;100.00;101541.44;4973169;28;20051;-87
2022/10/11 06:20:20;;;;;;;4.13;1.27;;;;;;;10.39;100.00;101579.28;4989105;28;20046;-87
2022/10/11 06:22:47;;;;;;;2.17;0.98;;;;;;;10.13;100.00;101535.34;4974585;28;20085;-87
2022/10/11 06:25:15;;;;;;;3.22;1.00;;;;;;;10.27;100.00;101566.44;4989780;28;20125;-87
2022/10/11 06:27:42;;;;;;;3.58;1.15;;;;;;;10.06;100.00;101520.69;4971595;28;20057;-88
2022/10/11 06:30:09;;;;;;;3.38;0.93;;;;;;;10.56;100.00;101602.41;4993323;28;20042;-88
2022/10/11 06:32:36;;;;;;;4.38;1.02;;;;;;;10.53;100.00;101602.47;4991362;28;20418;-87
2022/10/11 06:35:04;;;;;;;2.85;0.90;;;;;;;10.31;100.00;101569.84;4975690;28;20062;-89
2022/10/11 06:37:31;;;;;;;3.70;1.02;;;;;;;10.37;100.00;101574.94;4973015;28;20051;-88
2022/10/11 06:39:57;;;;;;;3.47;1.02;;;;;;;10.31;100.00;101583.81;4990042;28;20050;-87
2022/10/11 06:42:24;;;;;;;5.18;1.13;;;;;;;10.54;100.00;101609.47;4976654;28;20058;-86
2022/10/11 06:44:51;;;;;;;3.58;0.90;;;;;;;10.30;100.00;101563.72;4968790;28;20054;-87
2022/10/11 06:47:18;;;;;;;3.85;1.10;;;;;;;10.23;100.00;101539.47;4989918;28;20055;-88
2022/10/11 06:49:44;;;;;;;1.95;0.85;;;;;;;10.25;100.00;101535.06;4983430;28;20163;-87
2022/10/11 06:52:11;;;;;;;2.13;0.93;;;;;;;10.44;100.00;101556.44;4988160;28;20054;-83
2022/10/11 06:54:38;;;;;;;3.85;1.02;;;;;;;10.38;100.00;101551.34;4992376;28;20053;-84
2022/10/11 06:57:10;;;;;;;3.85;1.15;;;;;;;10.57;100.00;101562.25;4994177;28;20058;-83
2022/10/11 06:59:37;;;;;;;4.38;1.05;;;;;;;10.48;100.00;101556.38;4990002;28;20046;-84
2022/10/11 07:02:04;;;;;;;3.10;0.90;;;;;;;10.52;100.00;101561.50;4982090;28;20101;-84
2022/10/11 07:04:32;;;;;;;4.57;1.25;;;;;;;10.64;100.00;101573.41;4995591;28;20042;-85
2022/10/11 07:06:59;;;;;;;5.70;1.20;;;;;;;10.54;100.00;101551.00;4986156;28;20050;-85
2022/10/11 07:09:26;;;;;;;3.17;1.02;;;;;;;10.90;100.00;101616.47;4981861;28;20484;-85
2022/10/11 07:11:53;;;;;;;5.43;1.05;;;;;;;10.77;100.00;101577.47;4991161;28;20512;-84
2022/10/11 07:14:20;;;;;;;3.05;1.00;;;;;;;10.71;100.00;101571.50;4973489;28;20101;-84
2022/10/11 07:16:47;;;;;;;3.17;1.00;;;;;;;10.68;100.00;101556.75;4979632;28;20062;-84
2022/10/11 07:19:13;;;;;;;4.07;1.00;;;;;;;10.83;100.00;101571.22;4969439;28;20050;-85
2022/10/11 07:21:40;;;;;;;2.42;1.00;;;;;;;10.98;100.00;101586.56;4985161;28;20050;-86
2022/10/11 07:24:07;;;;;;;4.82;1.00;;;;;;;10.99;100.00;101595.25;4968689;28;20134;-85
2022/10/11 07:26:34;;;;;;;1.77;0.90;;;;;;;10.78;100.00;101533.78;4988759;28;20135;-85
2022/10/11 07:29:06;;;;;;;4.72;1.48;;;;;;;11.27;100.00;101599.78;4984127;28;20453;-85
2022/10/11 07:31:33;;;;;;;1.27;1.00;;;;;;;11.24;100.00;101584.13;4993604;28;20050;-85
2022/10/11 07:34:00;;;;;;;4.28;1.10;;;;;;;11.07;100.00;101568.88;4985983;28;20058;-85
2022/10/11 07:36:26;;;;;;;2.75;1.17;;;;;;;11.26;100.00;101592.81;4971154;28;20050;-85
2022/10/11 07:38:54;;;;;;;4.18;1.08;;;;;;;11.25;100.00;101591.97;4966798;28;20505;-84
2022/10/11 07:41:21;;;;;;;2.72;0.90;;;;;;;11.17;100.00;101563.34;4995706;28;20054;-85
2022/10/11 07:43:48;;;;;;;2.67;1.10;;;;;;;11.21;100.00;101578.09;5009145;28;20481;-85
2022/10/11 07:46:17;;;;;;;5.05;1.00;;;;;;;11.11;100.00;101546.91;4995143;28;20101;-85
2022/10/11 07:48:43;;;;;;;1.65;0.82;;;;;;;11.14;100.00;101563.41;4987269;28;20053;-86
2022/10/11 07:51:21;;;;;;;3.13;0.90;;;;;;;11.17;100.00;101546.72;4983883;28;20097;-88
2022/10/11 07:53:55;;;;;;;1.63;0.90;;;;;;;11.49;100.00;101603.56;4971913;28;20046;-89
2022/10/11 07:56:25;;;;;;;2.75;1.00;;;;;;;11.58;100.00;101626.91;4987043;28;20393;-91
2022/10/11 07:58:54;;;;;;;3.80;1.00;;;;;;;11.25;100.00;101565.75;4981776;28;20137;-88
2022/10/11 08:01:22;;;;;;;5.03;1.00;;;;;;;11.45;100.00;101582.69;4986984;28;20046;-88
2022/10/11 08:03:49;;;;;;;4.03;1.00;;;;;;;11.43;100.00;101581.88;4989902;28;20058;-88
2022/10/11 08:06:21;;;;;;;5.60;1.92;;;;;;;11.39;100.00;101558.38;4977138;28;20058;-90
2022/10/11 08:08:49;;;;;;;3.67;1.10;;;;;;;11.77;100.00;101619.38;4987145;28;20484;-89
2022/10/11 08:11:25;;;;;;;3.63;1.00;;;;;;;11.70;100.00;101593.34;4961309;28;20142;-90
2022/10/11 08:13:53;;;;;;;4.95;1.10;;;;;;;11.60;100.00;101574.41;4960653;28;20055;-90
2022/10/11 08:16:20;;;;;;;6.25;1.80;;;;;;;11.75;100.00;101615.91;4960457;28;20071;-91
2022/10/11 08:18:47;;;;;;;6.78;1.90;;;;;;;11.57;100.00;101598.09;4960024;28;20051;-89
2022/10/11 08:21:16;;;;;;;4.70;1.90;;;;;;;11.83;100.00;101607.84;4968038;28;20062;-89
2022/10/11 08:23:43;;;;;;;5.90;1.70;;;;;;;11.74;100.00;101603.72;4996749;28;20058;-90
2022/10/11 08:26:11;;;;;;;5.40;1.52;;;;;;;11.81;100.00;101604.41;4979561;28;20062;-89
2022/10/11 08:28:38;;;;;;;4.85;1.60;;;;;;;11.77;100.00;101610.63;4988777;28;20050;-89
2022/10/11 08:31:05;;;;;;;6.88;1.80;;;;;;;11.54;100.00;101591.19;4995701;28;20046;-90
2022/10/11 08:33:32;;;;;;;8.27;2.05;;;;;;;11.45;100.00;101590.56;4979196;28;20621;-90
2022/10/11 08:36:04;;;;;;;6.82;1.90;;;;;;;11.66;100.00;101604.84;4979207;28;20051;-89
2022/10/11 08:38:33;;;;;;;5.05;1.80;;;;;;;11.46;100.00;101564.31;4992932;28;20050;-88
2022/10/11 08:41:00;;;;;;;5.40;1.63;;;;;;;11.96;100.00;101605.75;4975828;28;20047;-90
2022/10/11 08:43:27;;;;;;;8.15;2.47;;;;;;;12.12;100.00;101617.50;4975985;28;20057;-89
2022/10/11 08:45:58;;;;;;;5.10;1.92;;;;;;;12.05;100.00;101596.75;4959609;28;20051;-90
2022/10/11 08:48:43;;;;;;;7.18;1.80;;;;;;;12.05;100.00;101573.97;4975459;28;20497;-91
2022/10/11 08:51:32;;;;;;;6.60;1.65;;;;;;;12.06;100.00;101583.59;4955855;28;20047;-89
2022/10/11 08:54:11;;;;;;;4.68;1.50;;;;;;;11.81;100.00;101558.94;4954837;29;20052;-89
2022/10/11 08:56:39;;;;;;;3.55;1.30;;;;;;;12.07;100.00;101577.41;4975830;28;20047;-89
2022/10/11 08:59:12;;;;;;;3.95;1.50;;;;;;;12.54;100.00;101618.88;4959113;28;20058;-88
2022/10/11 09:01:53;;;;;;;6.32;1.40;;;;;;;12.53;100.00;101606.63;4964726;28;20619;-89
2022/10/11 09:04:20;;;;;;;3.85;1.10;;;;;;;12.44;100.00;101584.16;4967459;28;20053;-89
2022/10/11 09:07:13;;;;;;;2.22;0.80;;;;;;;12.53;100.00;101594.34;4974694;28;20552;-89
2022/10/11 09:09:43;;;;;;;;;;;;;;;12.84;100.00;101619.66;4974450;28;20043;-89
2022/10/11 09:12:30;;;;;;;2.47;0.80;;;;;;;16.11;100.00;101604.97;4975091;28;19926;-90
2022/10/11 09:15:27;;;;;;;6.82;1.08;;;;;;;15.72;100.00;101619.06;4960275;28;20061;-89
2022/10/11 09:18:33;;;;;;;2.42;0.90;;;;;;;13.87;100.00;101602.03;4990377;28;20049;-89
2022/10/11 09:21:27;;;;;;;4.75;1.15;;;;;;;12.91;100.00;101641.34;4974776;28;20105;-90
2022/10/11 09:24:11;;;;;;;3.47;1.02;;;;;;;12.38;100.00;101601.84;4959942;28;20382;-89
2022/10/11 09:26:55;;;;;;;4.97;1.17;;;;;;;12.44;100.00;101647.19;4958380;28;20063;-89
2022/10/11 09:29:41;;;;;;;3.28;1.02;;;;;;;12.51;100.00;101640.81;4940695;29;20051;-91
2022/10/11 09:32:19;;;;;;;6.60;1.52;;;;;;;12.40;100.00;101605.31;4960308;28;20047;-89
2022/10/11 09:34:55;;;;;;;5.53;1.15;;;;;;;12.82;100.00;101620.59;4959503;28;20050;-90
2022/10/11 09:37:37;;;;;;;5.30;1.13;;;;;;;13.00;100.00;101635.75;4976033;28;20482;-89
2022/10/11 09:40:09;;;;;;;5.68;1.30;;;;;;;12.99;100.00;101630.56;4976724;28;20058;-89
2022/10/11 09:42:36;;;;;;;3.00;1.05;;;;;;;13.11;100.00;101572.31;4975684;28;20066;-88
2022/10/11 09:45:18;;;;;;;2.72;1.00;;;;;;;13.54;100.00;101619.94;4957228;28;20058;-90
2022/10/11 09:47:48;;;;;;;6.22;1.35;;;;;;;13.57;100.00;101617.19;4960005;28;20058;-90
2022/10/11 09:50:18;;;;;;;3.28;1.10;;;;;;;13.54;100.00;101593.63;4975519;28;20046;-90
2022/10/11 09:52:54;;;;;;;2.28;0.88;;;;;;;13.72;100.00;101618.41;4975371;28;20054;-89
2022/10/11 09:55:38;;;;;;;3.15;0.90;;;;;;;13.73;100.00;101578.03;4975058;28;20464;-90
2022/10/11 09:58:25;;;;;;;5.82;1.40;;;;;;;13.74;100.00;101603.41;4975117;28;20110;-89
2022/10/11 10:01:05;;;;;;;4.45;1.40;;;;;;;13.99;100.00;101601.59;4959045;28;20117;-89
2022/10/11 10:03:42;;;;;;;7.10;1.27;;;;;;;13.76;100.00;101586.66;4975176;28;20102;-90
2022/10/11 10:06:15;;;;;;;3.38;1.17;;;;;;;13.87;100.00;101620.47;4956266;28;20046;-90
2022/10/11 10:08:45;;;;;;;6.30;1.33;;;;;;;13.65;100.00;101589.69;4965405;28;20050;-90
2022/10/11 10:11:13;;;;;;;4.72;1.45;;;;;;;13.84;100.00;101621.44;4957449;28;20047;-90
2022/10/11 10:13:55;;;;;;;3.75;1.20;;;;;;;13.79;100.00;101625.16;4975323;28;20515;-90
2022/10/11 10:16:33;;;;;;;3.75;1.02;;;;;;;13.83;100.00;101577.63;4958487;28;20106;-89
2022/10/11 10:19:04;;;;;;;2.45;0.80;;;;;;;13.85;100.00;101585.44;4939938;29;20058;-90
2022/10/11 10:21:42;;;;;;;2.55;0.93;;;;;;;14.06;100.00;101615.38;4958607;28;20110;-91
2022/10/11 10:24:19;;;;;;;5.10;1.00;;;;;;;13.62;100.00;101575.78;4978650;28;20054;-89
2022/10/11 10:27:09;;;;;;;2.35;0.95;;;;;;;13.97;100.00;101605.16;4978957;28;20438;-89
2022/10/11 10:29:36;;;;;;;4.03;1.40;;;;;;;13.76;100.00;101570.00;4962856;28;20117;-89
2022/10/11 10:32:21;;;;;;;2.40;1.13;;;;;;;13.94;100.00;101577.19;4966277;28;20505;-90
2022/10/11 10:35:05;;;;;;;2.83;0.98;;;;;;;13.91;100.00;101581.72;4970699;28;20109;-90
2022/10/11 10:37:39;;;;;;;3.20;0.80;;;;;;;13.65;100.00;101594.94;4965222;28;20055;-89
2022/10/11 10:40:16;;;;;;;5.65;1.00;;;;;;;13.38;100.00;101595.94;4964027;28;20114;-89
2022/10/11 10:42:43;;;;;;;1.98;0.85;;;;;;;13.25;100.00;101561.31;4988686;28;20445;-90
2022/10/11 10:45:14;;;;;;;9.07;1.20;;;;;;;13.06;100.00;101540.06;4992159;28;20054;-90
2022/10/11 10:48:01;;;;;;;5.22;1.10;;;;;;;13.67;100.00;101589.63;4979428;28;20118;-89
2022/10/11 10:50:48;;;;;;;4.55;1.20;;;;;;;13.55;100.00;101582.19;4989323;28;20110;-89
2022/10/11 10:53:24;;;;;;;5.57;1.00;;;;;;;13.37;100.00;101597.72;4962304;28;20456;-88
2022/10/11 10:55:57;;;;;;;5.05;1.60;;;;;;;13.17;100.00;101552.81;4977996;28;20070;-89
2022/10/11 10:58:55;;;;;;;3.65;1.02;;;;;;;13.54;100.00;101578.69;4975141;28;20081;-89
2022/10/11 11:01:29;;;;;;;3.67;1.00;;;;;;;13.44;100.00;101566.81;4968342;28;20046;-89
2022/10/11 11:04:30;;;;;;;5.78;0.95;;;;;;;13.60;100.00;101617.09;4960118;28;20057;-88
2022/10/11 11:07:24;;;;;;;6.00;1.23;;;;;;;13.57;100.00;101614.56;4954673;29;20074;-91
2022/10/11 11:10:01;;;;;;;3.00;1.02;;;;;;;13.08;100.00;101570.66;4984488;28;20046;-89
2022/10/11 11:12:51;;;;;;;8.43;1.33;;;;;;;13.58;100.00;101609.25;4959383;29;20051;-90
2022/10/11 11:15:57;;;;;;;4.32;0.90;;;;;;;13.82;100.00;101594.31;4966110;28;20454;-91
2022/10/11 11:18:50;;;;;;;6.88;1.13;;;;;;;13.95;100.00;101599.13;4976800;28;20093;-89
2022/10/11 11:21:29;;;;;;;6.15;1.25;;;;;;;13.87;100.00;101609.94;4976522;28;20409;-88
2022/10/11 11:24:12;;;;;;;2.20;0.80;;;;;;;13.89;100.00;101581.78;4976904;28;20478;-90
2022/10/11 11:26:49;;;;;;;4.05;1.10;;;;;;;13.81;100.00;101570.66;4974092;28;20490;-90
2022/10/11 11:29:43;;;;;;;5.35;0.90;;;;;;;13.85;100.00;101562.63;4957027;29;20055;-89
2022/10/11 11:32:38;;;;;;;5.65;1.17;;;;;;;14.06;100.00;101544.28;4982045;28;20046;-89
2022/10/11 11:35:40;;;;;;;4.32;1.00;;;;;;;14.44;100.00;101592.78;4996425;28;20054;-91
2022/10/11 11:38:14;;;;;;;5.63;1.27;;;;;;;14.75;100.00;101588.94;4995139;28;20058;-87
2022/10/11 11:40:51;;;;;;;3.40;1.05;;;;;;;14.92;100.00;101575.03;4979595;28;20046;-91
2022/10/11 11:43:31;;;;;;;3.50;0.90;;;;;;;15.06;100.00;101578.88;4995145;28;20053;-90
2022/10/11 11:46:09;;;;;;;3.63;1.05;;;;;;;15.20;100.00;101581.78;4988991;28;20100;-90